createdAt,value
2023-01-19T00:02:42.305Z,61544
2023-01-19T00:07:44.119Z,61544
2023-01-19T00:12:45.778Z,61544
2023-01-19T00:17:47.581Z,61544
2023-01-19T00:22:49.353Z,20477.33333
2023-01-19T00:27:50.996Z,5077.33333
2023-01-19T00:32:52.841Z,1755.76471
2023-01-19T00:37:54.500Z,1997.33333
2023-01-19T00:42:56.375Z,3024
2023-01-19T00:47:58.069Z,8744
2023-01-19T00:53:00.151Z,7644
2023-01-19T00:58:02.005Z,3567.52941
2023-01-19T01:03:04.103Z,1446.43902
2023-01-19T01:08:06.343Z,953.83607
2023-01-19T01:13:20.313Z,906.5
2023-01-19T01:18:22.796Z,1201.14286
2023-01-19T01:23:24.540Z,1254.6383
2023-01-19T01:28:26.196Z,754.52632
2023-01-19T01:33:40.773Z,906.5
2023-01-19T01:38:43.181Z,1176
2023-01-19T01:43:45.040Z,599.31915
2023-01-19T01:48:46.828Z,776.43243
2023-01-19T01:53:48.589Z,668.70588
2023-01-19T01:58:50.266Z,566.22222
2023-01-19T02:03:52.004Z,776.43243
2023-01-19T02:08:53.949Z,1024.70175
2023-01-19T02:13:55.734Z,970.66667
2023-01-19T02:18:57.461Z,849.88235
2023-01-19T02:23:59.236Z,560
2023-01-19T02:29:00.889Z,542.05825
2023-01-19T02:34:02.585Z,799.55556
2023-01-19T02:39:04.555Z,542.05825
2023-01-19T02:44:06.442Z,231.85047
2023-01-19T02:49:08.101Z,195.42857
2023-01-19T02:54:10.031Z,189.41833
2023-01-19T02:59:11.649Z,208.37768
2023-01-19T03:04:13.493Z,248.9505
2023-01-19T03:09:15.234Z,498.95495
2023-01-19T03:14:16.889Z,466.0339
2023-01-19T03:19:18.655Z,686.16867
2023-01-19T03:24:20.527Z,553.90099
2023-01-19T03:29:22.155Z,599.31915
2023-01-19T03:34:23.825Z,354.66667
2023-01-19T03:39:25.596Z,233.20188
2023-01-19T03:44:27.194Z,229.18519
2023-01-19T03:49:28.908Z,202.82353
2023-01-19T03:54:30.643Z,209.51724
2023-01-19T03:59:32.234Z,273.41176
2023-01-19T04:04:34.094Z,384
2023-01-19T04:09:35.803Z,494
2023-01-19T04:14:37.504Z,494
2023-01-19T04:19:39.152Z,310.66667
2023-01-19T04:24:40.978Z,225.27854
2023-01-19T04:29:42.623Z,198.54545
2023-01-19T04:34:44.235Z,226.56881
2023-01-19T04:39:45.918Z,235.94313
2023-01-19T04:44:47.558Z,271.65957
2023-01-19T04:49:49.230Z,250.46766
2023-01-19T04:54:50.898Z,243.02913
2023-01-19T04:59:52.562Z,230.51163
2023-01-19T05:04:54.231Z,244.4878
2023-01-19T05:09:56.089Z,244.4878
2023-01-19T05:14:57.743Z,198.54545
2023-01-19T05:19:59.448Z,171.30627
2023-01-19T05:25:01.248Z,164
2023-01-19T05:30:02.982Z,158.63415
2023-01-19T05:35:04.651Z,156.41379
2023-01-19T05:40:06.530Z,155.68385
2023-01-19T05:45:08.151Z,157.14879
2023-01-19T05:50:09.761Z,154.9589
2023-01-19T05:55:11.491Z,154.23891
2023-01-19T06:00:13.225Z,160.14035
2023-01-19T06:05:14.918Z,162.43972
2023-01-19T06:10:16.580Z,162.43972
2023-01-19T06:15:18.251Z,164
2023-01-19T06:20:19.857Z,181.83784
2023-01-19T06:25:21.708Z,186.51969
2023-01-19T06:30:23.422Z,180.01533
2023-01-19T06:35:25.211Z,168.81752
2023-01-19T06:40:26.900Z,172.14815
2023-01-19T06:45:29.166Z,162.43972
2023-01-19T06:50:31.053Z,163.21708
2023-01-19T06:55:32.776Z,164.78853
2023-01-19T07:00:34.399Z,161.66784
2023-01-19T07:05:35.999Z,160.90141
2023-01-19T07:11:22.319Z,168.81752
2023-01-19T07:16:29.109Z,166.38267
2023-01-19T07:21:30.786Z,163.21708
2023-01-19T07:26:32.542Z,160.90141
2023-01-19T07:31:34.407Z,166.38267
2023-01-19T07:36:36.088Z,176.45283
2023-01-19T07:41:37.782Z,178.22053
2023-01-19T07:46:39.479Z,184.625
2023-01-19T07:51:41.227Z,175.57895
2023-01-19T07:56:43.002Z,178.22053
2023-01-19T08:01:44.822Z,192.3871
2023-01-19T08:06:46.533Z,191.38956
2023-01-19T08:11:48.295Z,176.45283
2023-01-19T08:16:50.098Z,170.47059
2023-01-19T08:21:51.740Z,187.47826
2023-01-19T08:26:53.567Z,194.4065
2023-01-19T08:31:56.067Z,165.58273
2023-01-19T08:36:57.832Z,148.65116
2023-01-19T08:41:59.566Z,146.63158
2023-01-19T08:47:01.252Z,157.14879
2023-01-19T08:52:03.081Z,177.33333
2023-01-19T08:57:04.774Z,179.1145
2023-01-19T09:02:06.526Z,162.43972
2023-01-19T09:07:08.553Z,154.9589
2023-01-19T09:12:10.329Z,154.9589
2023-01-19T09:17:11.948Z,157.88889
2023-01-19T09:22:13.571Z,161.66784
2023-01-19T09:27:15.258Z,160.14035
2023-01-19T09:32:17.134Z,160.90141
2023-01-19T09:37:18.718Z,160.14035
2023-01-19T09:42:20.638Z,155.68385
2023-01-19T09:47:22.322Z,172.99628
2023-01-19T09:52:24.029Z,178.22053
2023-01-19T09:57:25.826Z,169.64103
2023-01-19T10:02:27.471Z,182.75969
2023-01-19T10:07:29.092Z,201.74059
2023-01-19T10:12:30.949Z,222.73303
2023-01-19T10:17:32.632Z,261.52577
2023-01-19T10:22:34.252Z,292.0226
2023-01-19T10:27:36.078Z,230.51163
2023-01-19T10:32:37.741Z,226.56881
2023-01-19T10:37:39.374Z,199.60166
2023-01-19T10:42:41.144Z,185.56863
2023-01-19T10:47:43.050Z,191.38956
2023-01-19T10:52:44.803Z,183.68872
2023-01-19T10:57:46.563Z,164.78853
2023-01-19T11:02:48.415Z,157.88889
2023-01-19T11:07:50.100Z,162.43972
2023-01-19T11:12:51.776Z,168.81752
2023-01-19T11:17:53.423Z,157.14879
2023-01-19T11:22:55.101Z,153.52381
2023-01-19T11:27:56.891Z,147.30033
2023-01-19T11:32:58.765Z,159.38462
2023-01-19T11:38:00.521Z,152.10811
2023-01-19T11:43:02.631Z,152.81356
2023-01-19T11:48:04.739Z,152.10811
2023-01-19T11:53:06.485Z,152.81356
2023-01-19T11:58:08.128Z,150.71141
2023-01-19T12:03:09.831Z,145.96721
2023-01-19T12:08:11.495Z,150.02007
2023-01-19T12:13:13.195Z,146.63158
2023-01-19T12:18:14.925Z,145.30719
2023-01-19T12:23:16.784Z,142.70968
2023-01-19T12:28:18.510Z,144.65147
2023-01-19T12:33:20.248Z,141.4359
2023-01-19T12:38:21.869Z,145.96721
2023-01-19T12:43:23.804Z,145.30719
2023-01-19T12:48:25.660Z,149.33333
2023-01-19T12:53:27.296Z,150.71141
2023-01-19T12:58:29.650Z,154.23891
2023-01-19T13:03:31.272Z,152.81356
2023-01-19T13:08:33.367Z,153.52381
2023-01-19T13:13:35.185Z,144
2023-01-19T13:18:37.032Z,144
2023-01-19T13:23:38.664Z,145.30719
2023-01-19T13:28:40.462Z,144.65147
2023-01-19T13:33:42.049Z,146.63158
2023-01-19T13:38:43.708Z,153.52381
2023-01-19T13:43:45.446Z,153.52381
2023-01-19T13:48:47.056Z,144.65147
2023-01-19T13:53:48.768Z,143.35275
2023-01-19T13:58:50.873Z,144.65147
2023-01-19T14:03:52.521Z,143.35275
2023-01-19T14:08:54.226Z,145.96721
2023-01-19T14:13:56.141Z,148.65116
2023-01-19T14:18:57.713Z,142.70968
2023-01-19T14:23:59.349Z,135.90031
2023-01-19T14:29:01.181Z,135.90031
2023-01-19T14:34:02.812Z,138.32177
2023-01-19T14:39:04.533Z,134.12346
2023-01-19T14:44:06.267Z,133.53846
2023-01-19T14:49:07.928Z,136.5
2023-01-19T14:54:09.600Z,137.10345
2023-01-19T14:59:11.353Z,134.71207
2023-01-19T15:04:13.260Z,137.71069
2023-01-19T15:09:14.915Z,132.95706
2023-01-19T15:14:16.605Z,131.80488
2023-01-19T15:19:18.295Z,138.93671
2023-01-19T15:24:20.055Z,138.93671
2023-01-19T15:29:21.850Z,136.5
2023-01-19T15:34:23.570Z,142.07074
2023-01-19T15:39:25.244Z,142.70968
2023-01-19T15:44:27.061Z,145.30719
2023-01-19T15:49:28.842Z,144.65147
2023-01-19T15:54:30.478Z,142.70968
2023-01-19T15:59:32.236Z,143.35275
2023-01-19T16:04:34.021Z,138.32177
2023-01-19T16:09:35.735Z,138.32177
2023-01-19T16:14:37.517Z,145.30719
2023-01-19T16:19:39.156Z,135.30435
2023-01-19T16:24:40.840Z,135.30435
2023-01-19T16:29:42.653Z,140.17834
2023-01-19T16:34:44.333Z,137.10345
2023-01-19T16:39:46.065Z,145.96721
2023-01-19T16:44:47.834Z,143.35275
2023-01-19T16:49:49.484Z,138.93671
2023-01-19T16:54:51.151Z,140.17834
2023-01-19T16:59:52.883Z,147.30033
2023-01-19T17:04:54.598Z,141.4359
2023-01-19T17:09:56.218Z,132.3792
2023-01-19T17:14:58.088Z,142.70968
2023-01-19T17:19:59.796Z,140.17834
2023-01-19T17:25:02.469Z,150.71141
2023-01-19T17:30:04.348Z,159.38462
2023-01-19T17:35:05.950Z,155.68385
2023-01-19T17:40:07.581Z,157.14879
2023-01-19T17:45:09.351Z,163.21708
2023-01-19T17:50:11.226Z,146.63158
2023-01-19T17:55:13.066Z,175.57895
2023-01-19T18:00:15.145Z,192.3871
2023-01-19T18:05:17.533Z,238.73684
2023-01-19T18:10:19.185Z,244.4878
2023-01-19T18:15:21.115Z,326.6087
2023-01-19T18:20:22.789Z,387.16547
2023-01-19T18:25:24.411Z,374.76923
2023-01-19T18:30:26.281Z,317.33333
2023-01-19T18:35:27.941Z,365.91781
2023-01-19T18:40:29.602Z,357.42282
2023-01-19T18:45:31.505Z,351.94702
2023-01-19T18:50:33.362Z,324.24691
2023-01-19T18:55:34.992Z,380.87943
2023-01-19T19:00:36.943Z,363.04762
2023-01-19T19:05:38.643Z,308.49704
2023-01-19T19:10:40.363Z,440.77419
2023-01-19T19:15:42.149Z,440.77419
2023-01-19T19:20:43.919Z,572.57143
2023-01-19T19:25:45.661Z,686.16867
2023-01-19T19:30:47.566Z,787.83562
2023-01-19T19:35:49.366Z,1565.05263
2023-01-19T19:40:51.189Z,1254.6383
2023-01-19T19:45:53.956Z,1227.33333
2023-01-19T19:50:55.622Z,1810.66667
2023-01-19T19:55:57.255Z,1376.55814
2023-01-19T20:00:59.166Z,1810.66667
2023-01-19T20:06:00.882Z,3024
2023-01-19T20:11:02.585Z,5077.33333
2023-01-19T20:16:04.436Z,4682.46154
2023-01-19T20:21:06.109Z,15344
2023-01-19T20:26:07.758Z,61544
2023-01-19T20:31:09.480Z,0
2023-01-19T20:36:11.100Z,0
2023-01-19T20:41:12.861Z,61544
2023-01-19T20:46:14.620Z,15344
2023-01-19T20:51:16.237Z,20477.33333
2023-01-19T20:56:17.886Z,61544
2023-01-19T21:01:19.913Z,61544
2023-01-19T21:06:21.661Z,12264
2023-01-19T21:11:23.346Z,0
2023-01-19T21:16:25.104Z,61544
2023-01-19T21:21:30.426Z,2877.33333
2023-01-19T21:26:32.877Z,3186.10526
2023-01-19T21:31:34.681Z,6104
2023-01-19T21:36:36.347Z,1704
2023-01-19T21:41:38.107Z,3567.52941
2023-01-19T21:46:39.868Z,2877.33333
2023-01-19T21:51:41.759Z,5077.33333
2023-01-19T21:56:43.400Z,3366.22222
2023-01-19T22:01:45.241Z,1997.33333
2023-01-19T22:06:46.948Z,2313.23077
2023-01-19T22:11:48.643Z,3567.52941
2023-01-19T22:16:50.379Z,2144
2023-01-19T22:21:52.078Z,3366.22222
2023-01-19T22:26:53.755Z,1446.43902
2023-01-19T22:31:55.483Z,1410.66667
2023-01-19T22:36:57.162Z,2408
2023-01-19T22:41:58.915Z,1869
2023-01-19T22:47:00.786Z,1376.55814
2023-01-19T22:52:02.416Z,776.43243
2023-01-19T22:57:04.120Z,585.66667
2023-01-19T23:02:05.981Z,514.37037
2023-01-19T23:07:08.176Z,387.16547
2023-01-19T23:12:09.794Z,308.49704
2023-01-19T23:17:11.425Z,338.87179
2023-01-19T23:22:13.145Z,333.87342
2023-01-19T23:27:14.892Z,489.13274
2023-01-19T23:32:16.555Z,453.09091
2023-01-19T23:37:18.291Z,371.77778
2023-01-19T23:42:19.936Z,371.77778
2023-01-19T23:47:21.754Z,312.86228
2023-01-19T23:52:23.381Z,221.47748
2023-01-19T23:57:24.982Z,714
